sensor_id;sensor_type;location;lat;lon;timestamp;P1;durP1;ratioP1;P2;durP2;ratioP2
4508;SDS011;2267;48.816;9.230;2023-08-06T00:01:43;6.90;;;6.20;;
4508;SDS011;2267;48.816;9.230;2023-08-06T00:04:10;7.63;;;6.93;;
4508;SDS011;2267;48.816;9.230;2023-08-06T00:06:36;6.80;;;6.10;;
4508;SDS011;2267;48.816;9.230;2023-08-06T00:09:03;7.70;;;7.07;;
4508;SDS011;2267;48.816;9.230;2023-08-06T00:11:30;7.10;;;6.50;;
4508;SDS011;2267;48.816;9.230;2023-08-06T00:13:57;7.63;;;7.03;;
4508;SDS011;2267;48.816;9.230;2023-08-06T00:16:24;8.20;;;7.40;;
4508;SDS011;2267;48.816;9.230;2023-08-06T00:18:51;8.07;;;7.37;;
4508;SDS011;2267;48.816;9.230;2023-08-06T00:21:17;8.60;;;7.90;;
4508;SDS011;2267;48.816;9.230;2023-08-06T00:23:44;7.80;;;7.00;;
4508;SDS011;2267;48.816;9.230;2023-08-06T00:26:11;8.50;;;7.70;;
4508;SDS011;2267;48.816;9.230;2023-08-06T00:28:38;7.57;;;6.87;;
4508;SDS011;2267;48.816;9.230;2023-08-06T00:31:05;8.60;;;7.90;;
4508;SDS011;2267;48.816;9.230;2023-08-06T00:33:31;7.10;;;6.50;;
4508;SDS011;2267;48.816;9.230;2023-08-06T00:35:58;8.20;;;7.50;;
4508;SDS011;2267;48.816;9.230;2023-08-06T00:38:25;9.20;;;8.40;;
4508;SDS011;2267;48.816;9.230;2023-08-06T00:40:52;8.67;;;7.87;;
4508;SDS011;2267;48.816;9.230;2023-08-06T00:43:19;9.17;;;8.47;;
4508;SDS011;2267;48.816;9.230;2023-08-06T00:45:46;8.97;;;8.13;;
4508;SDS011;2267;48.816;9.230;2023-08-06T00:48:13;10.40;;;9.60;;
4508;SDS011;2267;48.816;9.230;2023-08-06T00:50:40;9.87;;;9.07;;
4508;SDS011;2267;48.816;9.230;2023-08-06T00:53:07;9.90;;;9.10;;
4508;SDS011;2267;48.816;9.230;2023-08-06T00:55:35;10.23;;;9.40;;
4508;SDS011;2267;48.816;9.230;2023-08-06T00:58:02;11.13;;;10.03;;
4508;SDS011;2267;48.816;9.230;2023-08-06T01:00:29;10.20;;;9.30;;
4508;SDS011;2267;48.816;9.230;2023-08-06T01:02:56;9.90;;;9.10;;
4508;SDS011;2267;48.816;9.230;2023-08-06T01:05:23;10.23;;;9.43;;
4508;SDS011;2267;48.816;9.230;2023-08-06T01:08:04;11.50;;;10.30;;
4508;SDS011;2267;48.816;9.230;2023-08-06T01:10:39;9.87;;;8.97;;
4508;SDS011;2267;48.816;9.230;2023-08-06T01:13:28;10.10;;;9.30;;
4508;SDS011;2267;48.816;9.230;2023-08-06T01:15:59;10.93;;;10.03;;
4508;SDS011;2267;48.816;9.230;2023-08-06T01:18:28;11.23;;;10.23;;
4508;SDS011;2267;48.816;9.230;2023-08-06T01:20:56;8.40;;;7.70;;
4508;SDS011;2267;48.816;9.230;2023-08-06T01:23:23;11.13;;;10.23;;
4508;SDS011;2267;48.816;9.230;2023-08-06T01:26:03;8.80;;;8.10;;
4508;SDS011;2267;48.816;9.230;2023-08-06T01:28:48;9.93;;;9.13;;
4508;SDS011;2267;48.816;9.230;2023-08-06T01:31:29;10.57;;;9.00;;
4508;SDS011;2267;48.816;9.230;2023-08-06T01:33:58;10.60;;;9.60;;
4508;SDS011;2267;48.816;9.230;2023-08-06T01:36:27;10.20;;;9.40;;
4508;SDS011;2267;48.816;9.230;2023-08-06T01:38:54;10.20;;;8.67;;
4508;SDS011;2267;48.816;9.230;2023-08-06T01:41:21;9.07;;;8.37;;
4508;SDS011;2267;48.816;9.230;2023-08-06T01:43:48;9.60;;;8.83;;
4508;SDS011;2267;48.816;9.230;2023-08-06T01:46:15;8.13;;;7.43;;
4508;SDS011;2267;48.816;9.230;2023-08-06T01:48:42;7.60;;;6.90;;
4508;SDS011;2267;48.816;9.230;2023-08-06T01:51:08;8.87;;;8.07;;
4508;SDS011;2267;48.816;9.230;2023-08-06T01:53:35;8.50;;;7.80;;
4508;SDS011;2267;48.816;9.230;2023-08-06T01:56:02;8.33;;;7.63;;
4508;SDS011;2267;48.816;9.230;2023-08-06T01:58:29;7.87;;;7.17;;
4508;SDS011;2267;48.816;9.230;2023-08-06T02:00:56;8.20;;;7.50;;
4508;SDS011;2267;48.816;9.230;2023-08-06T02:03:23;7.00;;;6.47;;
4508;SDS011;2267;48.816;9.230;2023-08-06T02:05:50;7.27;;;6.57;;
4508;SDS011;2267;48.816;9.230;2023-08-06T02:08:20;7.03;;;6.43;;
4508;SDS011;2267;48.816;9.230;2023-08-06T02:10:47;6.17;;;5.67;;
4508;SDS011;2267;48.816;9.230;2023-08-06T02:13:14;7.57;;;6.87;;
4508;SDS011;2267;48.816;9.230;2023-08-06T02:15:43;5.40;;;5.00;;
4508;SDS011;2267;48.816;9.230;2023-08-06T02:18:11;5.97;;;4.60;;
4508;SDS011;2267;48.816;9.230;2023-08-06T02:20:38;4.93;;;4.53;;
4508;SDS011;2267;48.816;9.230;2023-08-06T02:23:04;4.73;;;4.23;;
4508;SDS011;2267;48.816;9.230;2023-08-06T02:25:31;4.83;;;4.33;;
4508;SDS011;2267;48.816;9.230;2023-08-06T02:27:58;4.43;;;4.03;;
4508;SDS011;2267;48.816;9.230;2023-08-06T02:30:25;3.80;;;3.40;;
4508;SDS011;2267;48.816;9.230;2023-08-06T02:32:52;5.83;;;4.00;;
4508;SDS011;2267;48.816;9.230;2023-08-06T02:35:19;3.73;;;3.40;;
4508;SDS011;2267;48.816;9.230;2023-08-06T02:37:45;3.90;;;3.60;;
4508;SDS011;2267;48.816;9.230;2023-08-06T02:40:12;4.60;;;4.20;;
4508;SDS011;2267;48.816;9.230;2023-08-06T02:42:39;5.17;;;4.30;;
4508;SDS011;2267;48.816;9.230;2023-08-06T02:45:06;6.23;;;4.10;;
4508;SDS011;2267;48.816;9.230;2023-08-06T02:47:33;4.47;;;3.90;;
4508;SDS011;2267;48.816;9.230;2023-08-06T02:50:00;4.83;;;3.90;;
4508;SDS011;2267;48.816;9.230;2023-08-06T02:52:27;5.20;;;4.60;;
4508;SDS011;2267;48.816;9.230;2023-08-06T02:54:54;4.33;;;3.80;;
4508;SDS011;2267;48.816;9.230;2023-08-06T02:57:21;3.90;;;3.50;;
4508;SDS011;2267;48.816;9.230;2023-08-06T02:59:47;4.00;;;3.30;;
4508;SDS011;2267;48.816;9.230;2023-08-06T03:02:14;3.50;;;3.20;;
4508;SDS011;2267;48.816;9.230;2023-08-06T03:04:41;3.53;;;2.73;;
4508;SDS011;2267;48.816;9.230;2023-08-06T03:07:08;5.53;;;3.23;;
4508;SDS011;2267;48.816;9.230;2023-08-06T03:09:35;5.50;;;3.80;;
4508;SDS011;2267;48.816;9.230;2023-08-06T03:12:02;3.57;;;3.17;;
4508;SDS011;2267;48.816;9.230;2023-08-06T03:14:29;3.17;;;2.87;;
4508;SDS011;2267;48.816;9.230;2023-08-06T03:16:55;3.90;;;3.27;;
4508;SDS011;2267;48.816;9.230;2023-08-06T03:19:22;3.50;;;2.90;;
4508;SDS011;2267;48.816;9.230;2023-08-06T03:21:49;3.40;;;3.10;;
4508;SDS011;2267;48.816;9.230;2023-08-06T03:24:16;3.43;;;3.07;;
4508;SDS011;2267;48.816;9.230;2023-08-06T03:26:46;3.10;;;2.80;;
4508;SDS011;2267;48.816;9.230;2023-08-06T03:29:13;3.20;;;2.90;;
4508;SDS011;2267;48.816;9.230;2023-08-06T03:31:40;4.43;;;3.20;;
4508;SDS011;2267;48.816;9.230;2023-08-06T03:34:07;3.57;;;2.97;;
4508;SDS011;2267;48.816;9.230;2023-08-06T03:36:34;4.47;;;2.80;;
4508;SDS011;2267;48.816;9.230;2023-08-06T03:39:01;3.90;;;3.33;;
4508;SDS011;2267;48.816;9.230;2023-08-06T03:41:27;2.87;;;2.67;;
4508;SDS011;2267;48.816;9.230;2023-08-06T03:43:54;5.80;;;3.03;;
4508;SDS011;2267;48.816;9.230;2023-08-06T03:46:21;4.77;;;3.20;;
4508;SDS011;2267;48.816;9.230;2023-08-06T03:48:48;3.63;;;2.90;;
4508;SDS011;2267;48.816;9.230;2023-08-06T03:51:14;2.90;;;2.50;;
4508;SDS011;2267;48.816;9.230;2023-08-06T03:53:41;2.97;;;2.60;;
4508;SDS011;2267;48.816;9.230;2023-08-06T03:56:08;3.00;;;2.70;;
4508;SDS011;2267;48.816;9.230;2023-08-06T03:58:35;6.60;;;3.13;;
4508;SDS011;2267;48.816;9.230;2023-08-06T04:01:02;4.67;;;3.07;;
4508;SDS011;2267;48.816;9.230;2023-08-06T04:03:30;2.97;;;2.67;;
4508;SDS011;2267;48.816;9.230;2023-08-06T04:05:57;3.27;;;2.80;;
4508;SDS011;2267;48.816;9.230;2023-08-06T04:08:23;2.80;;;2.50;;
4508;SDS011;2267;48.816;9.230;2023-08-06T04:10:53;3.87;;;2.80;;
4508;SDS011;2267;48.816;9.230;2023-08-06T04:13:20;3.00;;;2.70;;
4508;SDS011;2267;48.816;9.230;2023-08-06T04:15:47;3.40;;;3.00;;
4508;SDS011;2267;48.816;9.230;2023-08-06T04:18:14;3.90;;;2.73;;
4508;SDS011;2267;48.816;9.230;2023-08-06T04:20:44;4.83;;;2.60;;
4508;SDS011;2267;48.816;9.230;2023-08-06T04:23:12;3.50;;;2.93;;
4508;SDS011;2267;48.816;9.230;2023-08-06T04:25:39;3.40;;;2.80;;
4508;SDS011;2267;48.816;9.230;2023-08-06T04:28:06;6.80;;;3.73;;
4508;SDS011;2267;48.816;9.230;2023-08-06T04:30:33;3.47;;;2.70;;
4508;SDS011;2267;48.816;9.230;2023-08-06T04:33:00;5.87;;;3.20;;
4508;SDS011;2267;48.816;9.230;2023-08-06T04:35:27;3.93;;;3.53;;
4508;SDS011;2267;48.816;9.230;2023-08-06T04:37:54;3.93;;;3.23;;
4508;SDS011;2267;48.816;9.230;2023-08-06T04:40:20;4.90;;;3.10;;
4508;SDS011;2267;48.816;9.230;2023-08-06T04:42:47;7.80;;;3.30;;
4508;SDS011;2267;48.816;9.230;2023-08-06T04:45:14;3.90;;;2.87;;
4508;SDS011;2267;48.816;9.230;2023-08-06T04:47:41;3.70;;;3.27;;
4508;SDS011;2267;48.816;9.230;2023-08-06T04:50:08;4.50;;;3.40;;
4508;SDS011;2267;48.816;9.230;2023-08-06T04:52:35;4.63;;;2.93;;
4508;SDS011;2267;48.816;9.230;2023-08-06T04:55:03;3.90;;;3.37;;
4508;SDS011;2267;48.816;9.230;2023-08-06T04:57:32;3.20;;;2.90;;
4508;SDS011;2267;48.816;9.230;2023-08-06T04:59:59;3.30;;;2.90;;
4508;SDS011;2267;48.816;9.230;2023-08-06T05:02:26;4.40;;;3.53;;
4508;SDS011;2267;48.816;9.230;2023-08-06T05:04:53;3.73;;;3.43;;
4508;SDS011;2267;48.816;9.230;2023-08-06T05:07:19;4.80;;;3.63;;
4508;SDS011;2267;48.816;9.230;2023-08-06T05:09:46;3.50;;;3.20;;
4508;SDS011;2267;48.816;9.230;2023-08-06T05:12:13;3.47;;;2.93;;
4508;SDS011;2267;48.816;9.230;2023-08-06T05:14:40;3.50;;;2.90;;
4508;SDS011;2267;48.816;9.230;2023-08-06T05:17:07;4.40;;;4.00;;
4508;SDS011;2267;48.816;9.230;2023-08-06T05:19:34;4.10;;;3.10;;
4508;SDS011;2267;48.816;9.230;2023-08-06T05:22:00;3.70;;;3.00;;
4508;SDS011;2267;48.816;9.230;2023-08-06T05:24:28;3.67;;;2.83;;
4508;SDS011;2267;48.816;9.230;2023-08-06T05:26:55;3.73;;;3.10;;
4508;SDS011;2267;48.816;9.230;2023-08-06T05:29:22;3.70;;;3.27;;
4508;SDS011;2267;48.816;9.230;2023-08-06T05:31:48;4.13;;;2.93;;
4508;SDS011;2267;48.816;9.230;2023-08-06T05:34:15;4.63;;;3.47;;
4508;SDS011;2267;48.816;9.230;2023-08-06T05:36:42;3.30;;;3.00;;
4508;SDS011;2267;48.816;9.230;2023-08-06T05:39:09;4.87;;;2.90;;
4508;SDS011;2267;48.816;9.230;2023-08-06T05:41:36;3.27;;;2.60;;
4508;SDS011;2267;48.816;9.230;2023-08-06T05:44:03;4.07;;;2.77;;
4508;SDS011;2267;48.816;9.230;2023-08-06T05:46:30;3.70;;;2.57;;
4508;SDS011;2267;48.816;9.230;2023-08-06T05:48:56;3.00;;;2.20;;
4508;SDS011;2267;48.816;9.230;2023-08-06T05:51:23;2.80;;;2.07;;
4508;SDS011;2267;48.816;9.230;2023-08-06T05:53:51;3.23;;;2.37;;
4508;SDS011;2267;48.816;9.230;2023-08-06T05:56:18;3.57;;;2.30;;
4508;SDS011;2267;48.816;9.230;2023-08-06T05:58:45;2.90;;;2.20;;
4508;SDS011;2267;48.816;9.230;2023-08-06T06:01:13;3.87;;;2.63;;
4508;SDS011;2267;48.816;9.230;2023-08-06T06:03:40;3.00;;;2.13;;
4508;SDS011;2267;48.816;9.230;2023-08-06T06:06:07;2.70;;;1.90;;
4508;SDS011;2267;48.816;9.230;2023-08-06T06:08:34;4.17;;;2.10;;
4508;SDS011;2267;48.816;9.230;2023-08-06T06:11:01;6.27;;;1.87;;
4508;SDS011;2267;48.816;9.230;2023-08-06T06:13:27;2.50;;;1.90;;
4508;SDS011;2267;48.816;9.230;2023-08-06T06:15:54;6.67;;;1.93;;
4508;SDS011;2267;48.816;9.230;2023-08-06T06:18:22;2.13;;;1.50;;
4508;SDS011;2267;48.816;9.230;2023-08-06T06:20:49;2.70;;;1.40;;
4508;SDS011;2267;48.816;9.230;2023-08-06T06:23:15;2.00;;;1.10;;
4508;SDS011;2267;48.816;9.230;2023-08-06T06:25:43;1.53;;;0.90;;
4508;SDS011;2267;48.816;9.230;2023-08-06T06:28:10;2.50;;;1.20;;
4508;SDS011;2267;48.816;9.230;2023-08-06T06:30:37;2.17;;;1.17;;
4508;SDS011;2267;48.816;9.230;2023-08-06T06:33:04;3.87;;;1.30;;
4508;SDS011;2267;48.816;9.230;2023-08-06T06:35:31;3.13;;;1.10;;
4508;SDS011;2267;48.816;9.230;2023-08-06T06:37:58;2.13;;;1.10;;
4508;SDS011;2267;48.816;9.230;2023-08-06T06:40:25;1.60;;;1.00;;
4508;SDS011;2267;48.816;9.230;2023-08-06T06:42:52;2.10;;;1.10;;
4508;SDS011;2267;48.816;9.230;2023-08-06T06:45:18;2.40;;;1.00;;
4508;SDS011;2267;48.816;9.230;2023-08-06T06:47:45;3.87;;;1.07;;
4508;SDS011;2267;48.816;9.230;2023-08-06T06:50:12;1.70;;;1.20;;
4508;SDS011;2267;48.816;9.230;2023-08-06T06:52:39;2.53;;;1.17;;
4508;SDS011;2267;48.816;9.230;2023-08-06T06:55:06;2.33;;;1.27;;
4508;SDS011;2267;48.816;9.230;2023-08-06T06:57:33;4.20;;;1.00;;
4508;SDS011;2267;48.816;9.230;2023-08-06T07:00:00;2.37;;;1.47;;
4508;SDS011;2267;48.816;9.230;2023-08-06T07:02:28;1.60;;;1.00;;
4508;SDS011;2267;48.816;9.230;2023-08-06T07:04:55;2.20;;;1.23;;
4508;SDS011;2267;48.816;9.230;2023-08-06T07:07:22;2.00;;;1.00;;
4508;SDS011;2267;48.816;9.230;2023-08-06T07:09:49;2.30;;;1.23;;
4508;SDS011;2267;48.816;9.230;2023-08-06T07:12:15;3.83;;;1.20;;
4508;SDS011;2267;48.816;9.230;2023-08-06T07:14:42;4.53;;;1.00;;
4508;SDS011;2267;48.816;9.230;2023-08-06T07:17:09;2.43;;;1.30;;
4508;SDS011;2267;48.816;9.230;2023-08-06T07:19:36;2.27;;;0.90;;
4508;SDS011;2267;48.816;9.230;2023-08-06T07:22:03;3.20;;;1.30;;
4508;SDS011;2267;48.816;9.230;2023-08-06T07:24:30;1.97;;;1.00;;
4508;SDS011;2267;48.816;9.230;2023-08-06T07:26:57;1.90;;;0.97;;
4508;SDS011;2267;48.816;9.230;2023-08-06T07:29:23;2.20;;;1.17;;
4508;SDS011;2267;48.816;9.230;2023-08-06T07:31:50;2.33;;;0.90;;
4508;SDS011;2267;48.816;9.230;2023-08-06T07:34:17;2.20;;;0.97;;
4508;SDS011;2267;48.816;9.230;2023-08-06T07:36:45;2.37;;;1.13;;
4508;SDS011;2267;48.816;9.230;2023-08-06T07:39:12;1.90;;;0.83;;
4508;SDS011;2267;48.816;9.230;2023-08-06T07:41:39;2.83;;;1.20;;
4508;SDS011;2267;48.816;9.230;2023-08-06T07:44:07;2.50;;;1.10;;
4508;SDS011;2267;48.816;9.230;2023-08-06T07:46:34;3.03;;;1.30;;
4508;SDS011;2267;48.816;9.230;2023-08-06T07:49:01;1.60;;;1.00;;
4508;SDS011;2267;48.816;9.230;2023-08-06T07:51:28;1.70;;;1.00;;
4508;SDS011;2267;48.816;9.230;2023-08-06T07:53:55;1.80;;;1.13;;
4508;SDS011;2267;48.816;9.230;2023-08-06T07:56:22;2.53;;;1.00;;
4508;SDS011;2267;48.816;9.230;2023-08-06T07:58:49;2.30;;;0.97;;
4508;SDS011;2267;48.816;9.230;2023-08-06T08:01:16;2.17;;;1.00;;
4508;SDS011;2267;48.816;9.230;2023-08-06T08:03:43;2.43;;;0.80;;
4508;SDS011;2267;48.816;9.230;2023-08-06T08:06:09;1.73;;;0.90;;
4508;SDS011;2267;48.816;9.230;2023-08-06T08:08:36;1.63;;;0.80;;
4508;SDS011;2267;48.816;9.230;2023-08-06T08:11:05;1.70;;;0.80;;
4508;SDS011;2267;48.816;9.230;2023-08-06T08:13:32;1.80;;;0.80;;
4508;SDS011;2267;48.816;9.230;2023-08-06T08:16:00;1.60;;;0.80;;
4508;SDS011;2267;48.816;9.230;2023-08-06T08:18:27;1.70;;;0.80;;
4508;SDS011;2267;48.816;9.230;2023-08-06T08:20:55;1.70;;;0.80;;
4508;SDS011;2267;48.816;9.230;2023-08-06T08:23:22;1.60;;;0.80;;
4508;SDS011;2267;48.816;9.230;2023-08-06T08:25:49;1.40;;;0.70;;
4508;SDS011;2267;48.816;9.230;2023-08-06T08:28:16;2.07;;;0.90;;
4508;SDS011;2267;48.816;9.230;2023-08-06T08:30:43;1.50;;;0.80;;
4508;SDS011;2267;48.816;9.230;2023-08-06T08:33:10;1.60;;;0.80;;
4508;SDS011;2267;48.816;9.230;2023-08-06T08:35:37;1.50;;;0.83;;
4508;SDS011;2267;48.816;9.230;2023-08-06T08:38:03;2.90;;;0.90;;
4508;SDS011;2267;48.816;9.230;2023-08-06T08:40:31;1.63;;;0.77;;
4508;SDS011;2267;48.816;9.230;2023-08-06T08:42:59;1.70;;;0.83;;
4508;SDS011;2267;48.816;9.230;2023-08-06T08:45:26;1.40;;;0.70;;
4508;SDS011;2267;48.816;9.230;2023-08-06T08:47:55;1.50;;;0.70;;
4508;SDS011;2267;48.816;9.230;2023-08-06T08:50:23;1.60;;;0.80;;
4508;SDS011;2267;48.816;9.230;2023-08-06T08:52:50;1.70;;;0.77;;
4508;SDS011;2267;48.816;9.230;2023-08-06T08:55:18;3.83;;;0.70;;
4508;SDS011;2267;48.816;9.230;2023-08-06T08:57:47;2.27;;;0.70;;
4508;SDS011;2267;48.816;9.230;2023-08-06T09:00:14;1.40;;;0.70;;
4508;SDS011;2267;48.816;9.230;2023-08-06T09:02:41;1.60;;;0.60;;
4508;SDS011;2267;48.816;9.230;2023-08-06T09:05:09;1.40;;;0.70;;
4508;SDS011;2267;48.816;9.230;2023-08-06T09:07:43;1.40;;;0.70;;
4508;SDS011;2267;48.816;9.230;2023-08-06T09:10:16;2.40;;;0.80;;
4508;SDS011;2267;48.816;9.230;2023-08-06T09:12:44;1.40;;;0.60;;
4508;SDS011;2267;48.816;9.230;2023-08-06T09:15:13;1.40;;;0.60;;
4508;SDS011;2267;48.816;9.230;2023-08-06T09:17:39;1.40;;;0.73;;
4508;SDS011;2267;48.816;9.230;2023-08-06T09:20:13;1.47;;;0.70;;
4508;SDS011;2267;48.816;9.230;2023-08-06T09:22:40;1.60;;;0.70;;
4508;SDS011;2267;48.816;9.230;2023-08-06T09:25:07;1.50;;;0.70;;
4508;SDS011;2267;48.816;9.230;2023-08-06T09:27:36;1.50;;;0.80;;
4508;SDS011;2267;48.816;9.230;2023-08-06T09:30:04;2.07;;;0.80;;
4508;SDS011;2267;48.816;9.230;2023-08-06T09:32:47;1.57;;;0.70;;
4508;SDS011;2267;48.816;9.230;2023-08-06T09:35:17;1.40;;;0.70;;
4508;SDS011;2267;48.816;9.230;2023-08-06T09:37:45;1.50;;;0.73;;
4508;SDS011;2267;48.816;9.230;2023-08-06T09:40:30;1.93;;;0.80;;
4508;SDS011;2267;48.816;9.230;2023-08-06T09:42:58;2.23;;;0.67;;
4508;SDS011;2267;48.816;9.230;2023-08-06T09:45:36;1.70;;;0.73;;
4508;SDS011;2267;48.816;9.230;2023-08-06T09:48:04;1.57;;;0.60;;
4508;SDS011;2267;48.816;9.230;2023-08-06T09:50:34;1.87;;;0.90;;
4508;SDS011;2267;48.816;9.230;2023-08-06T09:53:06;1.40;;;0.70;;
4508;SDS011;2267;48.816;9.230;2023-08-06T09:55:35;1.40;;;0.60;;
4508;SDS011;2267;48.816;9.230;2023-08-06T09:58:02;1.50;;;0.70;;
4508;SDS011;2267;48.816;9.230;2023-08-06T10:00:29;1.73;;;0.70;;
4508;SDS011;2267;48.816;9.230;2023-08-06T10:03:02;1.40;;;0.60;;
4508;SDS011;2267;48.816;9.230;2023-08-06T10:05:29;1.50;;;0.60;;
4508;SDS011;2267;48.816;9.230;2023-08-06T10:07:57;1.40;;;0.70;;
4508;SDS011;2267;48.816;9.230;2023-08-06T10:10:26;1.40;;;0.70;;
4508;SDS011;2267;48.816;9.230;2023-08-06T10:12:55;1.40;;;0.70;;
4508;SDS011;2267;48.816;9.230;2023-08-06T10:15:25;1.40;;;0.60;;
4508;SDS011;2267;48.816;9.230;2023-08-06T10:17:54;1.60;;;0.70;;
4508;SDS011;2267;48.816;9.230;2023-08-06T10:20:24;1.47;;;0.70;;
4508;SDS011;2267;48.816;9.230;2023-08-06T10:23:03;1.47;;;0.70;;
4508;SDS011;2267;48.816;9.230;2023-08-06T10:25:32;1.60;;;0.87;;
4508;SDS011;2267;48.816;9.230;2023-08-06T10:28:06;1.47;;;0.67;;
4508;SDS011;2267;48.816;9.230;2023-08-06T10:30:42;1.50;;;0.70;;
4508;SDS011;2267;48.816;9.230;2023-08-06T10:33:14;1.50;;;0.70;;
4508;SDS011;2267;48.816;9.230;2023-08-06T10:35:46;1.40;;;0.70;;
4508;SDS011;2267;48.816;9.230;2023-08-06T10:38:19;1.57;;;0.60;;
4508;SDS011;2267;48.816;9.230;2023-08-06T10:43:28;2.07;;;0.70;;
4508;SDS011;2267;48.816;9.230;2023-08-06T10:45:58;1.40;;;0.70;;
4508;SDS011;2267;48.816;9.230;2023-08-06T10:48:37;1.40;;;0.60;;
4508;SDS011;2267;48.816;9.230;2023-08-06T10:51:08;1.40;;;0.60;;
4508;SDS011;2267;48.816;9.230;2023-08-06T10:53:37;1.67;;;0.80;;
4508;SDS011;2267;48.816;9.230;2023-08-06T10:58:45;1.40;;;0.63;;
4508;SDS011;2267;48.816;9.230;2023-08-06T11:01:12;1.40;;;0.70;;
4508;SDS011;2267;48.816;9.230;2023-08-06T11:03:41;1.40;;;0.63;;
4508;SDS011;2267;48.816;9.230;2023-08-06T11:06:09;1.50;;;0.60;;
4508;SDS011;2267;48.816;9.230;2023-08-06T11:08:37;2.03;;;0.70;;
4508;SDS011;2267;48.816;9.230;2023-08-06T11:11:11;1.50;;;0.80;;
4508;SDS011;2267;48.816;9.230;2023-08-06T11:13:42;2.47;;;0.70;;
4508;SDS011;2267;48.816;9.230;2023-08-06T11:16:12;1.90;;;0.80;;
4508;SDS011;2267;48.816;9.230;2023-08-06T11:18:52;1.80;;;1.13;;
4508;SDS011;2267;48.816;9.230;2023-08-06T11:21:21;1.60;;;0.90;;
4508;SDS011;2267;48.816;9.230;2023-08-06T11:23:48;1.70;;;0.80;;
4508;SDS011;2267;48.816;9.230;2023-08-06T11:26:19;1.60;;;0.80;;
4508;SDS011;2267;48.816;9.230;2023-08-06T11:28:46;1.50;;;0.70;;
4508;SDS011;2267;48.816;9.230;2023-08-06T11:31:22;1.60;;;0.80;;
4508;SDS011;2267;48.816;9.230;2023-08-06T11:33:50;1.57;;;0.80;;
4508;SDS011;2267;48.816;9.230;2023-08-06T11:36:28;2.53;;;0.97;;
4508;SDS011;2267;48.816;9.230;2023-08-06T11:38:59;2.40;;;0.90;;
4508;SDS011;2267;48.816;9.230;2023-08-06T11:41:29;1.70;;;0.93;;
4508;SDS011;2267;48.816;9.230;2023-08-06T11:43:57;2.13;;;1.10;;
4508;SDS011;2267;48.816;9.230;2023-08-06T11:46:25;1.97;;;0.93;;
4508;SDS011;2267;48.816;9.230;2023-08-06T11:48:52;1.60;;;0.90;;
4508;SDS011;2267;48.816;9.230;2023-08-06T11:51:23;2.57;;;1.23;;
4508;SDS011;2267;48.816;9.230;2023-08-06T11:53:59;1.83;;;0.97;;
4508;SDS011;2267;48.816;9.230;2023-08-06T11:56:26;2.13;;;1.13;;
4508;SDS011;2267;48.816;9.230;2023-08-06T11:58:54;2.63;;;1.33;;
4508;SDS011;2267;48.816;9.230;2023-08-06T12:01:20;2.20;;;1.50;;
4508;SDS011;2267;48.816;9.230;2023-08-06T12:03:47;2.20;;;1.27;;
4508;SDS011;2267;48.816;9.230;2023-08-06T12:06:14;1.67;;;1.10;;
4508;SDS011;2267;48.816;9.230;2023-08-06T12:08:41;2.47;;;1.60;;
4508;SDS011;2267;48.816;9.230;2023-08-06T12:11:08;1.97;;;1.37;;
4508;SDS011;2267;48.816;9.230;2023-08-06T12:13:35;2.30;;;1.40;;
4508;SDS011;2267;48.816;9.230;2023-08-06T12:16:02;2.80;;;1.83;;
4508;SDS011;2267;48.816;9.230;2023-08-06T12:18:29;2.73;;;1.97;;
4508;SDS011;2267;48.816;9.230;2023-08-06T12:20:55;3.13;;;1.83;;
4508;SDS011;2267;48.816;9.230;2023-08-06T12:23:22;2.17;;;1.57;;
4508;SDS011;2267;48.816;9.230;2023-08-06T12:25:49;2.83;;;1.40;;
4508;SDS011;2267;48.816;9.230;2023-08-06T12:28:16;1.80;;;1.50;;
4508;SDS011;2267;48.816;9.230;2023-08-06T12:30:43;2.27;;;1.57;;
4508;SDS011;2267;48.816;9.230;2023-08-06T12:33:11;2.20;;;1.53;;
4508;SDS011;2267;48.816;9.230;2023-08-06T12:35:38;3.70;;;2.37;;
4508;SDS011;2267;48.816;9.230;2023-08-06T12:38:04;2.30;;;1.73;;
4508;SDS011;2267;48.816;9.230;2023-08-06T12:40:31;2.73;;;1.90;;
4508;SDS011;2267;48.816;9.230;2023-08-06T12:43:04;2.20;;;1.40;;
4508;SDS011;2267;48.816;9.230;2023-08-06T12:45:31;4.10;;;1.97;;
4508;SDS011;2267;48.816;9.230;2023-08-06T12:47:58;2.07;;;1.70;;
4508;SDS011;2267;48.816;9.230;2023-08-06T12:50:25;2.50;;;1.33;;
4508;SDS011;2267;48.816;9.230;2023-08-06T12:52:52;2.40;;;1.77;;
4508;SDS011;2267;48.816;9.230;2023-08-06T12:55:19;1.90;;;1.50;;
4508;SDS011;2267;48.816;9.230;2023-08-06T12:57:46;1.80;;;1.20;;
4508;SDS011;2267;48.816;9.230;2023-08-06T13:00:25;2.17;;;1.20;;
4508;SDS011;2267;48.816;9.230;2023-08-06T13:02:52;1.70;;;1.10;;
4508;SDS011;2267;48.816;9.230;2023-08-06T13:05:19;3.03;;;1.20;;
4508;SDS011;2267;48.816;9.230;2023-08-06T13:07:46;2.30;;;1.07;;
4508;SDS011;2267;48.816;9.230;2023-08-06T13:10:13;1.97;;;1.00;;
4508;SDS011;2267;48.816;9.230;2023-08-06T13:12:40;2.50;;;1.10;;
4508;SDS011;2267;48.816;9.230;2023-08-06T13:15:07;2.33;;;1.10;;
4508;SDS011;2267;48.816;9.230;2023-08-06T13:17:34;4.07;;;1.43;;
4508;SDS011;2267;48.816;9.230;2023-08-06T13:20:02;1.93;;;1.20;;
4508;SDS011;2267;48.816;9.230;2023-08-06T13:22:29;1.80;;;1.17;;
4508;SDS011;2267;48.816;9.230;2023-08-06T13:24:55;1.60;;;1.00;;
4508;SDS011;2267;48.816;9.230;2023-08-06T13:27:22;2.10;;;1.63;;
4508;SDS011;2267;48.816;9.230;2023-08-06T13:29:49;1.70;;;1.10;;
4508;SDS011;2267;48.816;9.230;2023-08-06T13:32:16;2.77;;;1.23;;
4508;SDS011;2267;48.816;9.230;2023-08-06T13:34:43;2.37;;;1.20;;
4508;SDS011;2267;48.816;9.230;2023-08-06T13:37:09;2.00;;;1.30;;
4508;SDS011;2267;48.816;9.230;2023-08-06T13:39:37;1.57;;;0.90;;
4508;SDS011;2267;48.816;9.230;2023-08-06T13:42:04;1.70;;;1.00;;
4508;SDS011;2267;48.816;9.230;2023-08-06T13:44:30;2.57;;;1.00;;
4508;SDS011;2267;48.816;9.230;2023-08-06T13:47:02;2.60;;;1.03;;
4508;SDS011;2267;48.816;9.230;2023-08-06T13:49:28;2.83;;;1.27;;
4508;SDS011;2267;48.816;9.230;2023-08-06T13:51:55;1.70;;;1.00;;
4508;SDS011;2267;48.816;9.230;2023-08-06T13:54:41;1.80;;;0.90;;
4508;SDS011;2267;48.816;9.230;2023-08-06T13:57:08;1.60;;;0.97;;
4508;SDS011;2267;48.816;9.230;2023-08-06T13:59:34;1.50;;;0.80;;
4508;SDS011;2267;48.816;9.230;2023-08-06T14:02:01;1.60;;;0.90;;
4508;SDS011;2267;48.816;9.230;2023-08-06T14:04:29;2.70;;;0.90;;
4508;SDS011;2267;48.816;9.230;2023-08-06T14:06:56;1.90;;;0.80;;
4508;SDS011;2267;48.816;9.230;2023-08-06T14:09:22;1.60;;;0.90;;
4508;SDS011;2267;48.816;9.230;2023-08-06T14:11:50;1.60;;;0.80;;
4508;SDS011;2267;48.816;9.230;2023-08-06T14:14:17;2.00;;;1.10;;
4508;SDS011;2267;48.816;9.230;2023-08-06T14:16:43;1.67;;;0.90;;
4508;SDS011;2267;48.816;9.230;2023-08-06T14:19:10;2.60;;;1.00;;
4508;SDS011;2267;48.816;9.230;2023-08-06T14:21:37;8.80;;;1.30;;
4508;SDS011;2267;48.816;9.230;2023-08-06T14:24:04;3.30;;;0.90;;
4508;SDS011;2267;48.816;9.230;2023-08-06T14:26:31;2.00;;;1.20;;
4508;SDS011;2267;48.816;9.230;2023-08-06T14:28:58;1.67;;;0.97;;
4508;SDS011;2267;48.816;9.230;2023-08-06T14:31:25;2.20;;;1.10;;
4508;SDS011;2267;48.816;9.230;2023-08-06T14:33:52;1.60;;;1.00;;
4508;SDS011;2267;48.816;9.230;2023-08-06T14:36:19;1.70;;;1.00;;
4508;SDS011;2267;48.816;9.230;2023-08-06T14:38:46;1.97;;;1.00;;
4508;SDS011;2267;48.816;9.230;2023-08-06T14:41:25;1.60;;;1.00;;
4508;SDS011;2267;48.816;9.230;2023-08-06T14:43:52;2.23;;;1.10;;
4508;SDS011;2267;48.816;9.230;2023-08-06T14:46:20;1.90;;;1.00;;
4508;SDS011;2267;48.816;9.230;2023-08-06T14:48:47;3.10;;;1.00;;
4508;SDS011;2267;48.816;9.230;2023-08-06T14:51:13;3.73;;;1.30;;
4508;SDS011;2267;48.816;9.230;2023-08-06T14:53:40;3.20;;;1.40;;
4508;SDS011;2267;48.816;9.230;2023-08-06T14:56:07;2.83;;;1.27;;
4508;SDS011;2267;48.816;9.230;2023-08-06T14:58:34;1.70;;;0.90;;
4508;SDS011;2267;48.816;9.230;2023-08-06T15:01:01;2.33;;;0.90;;
4508;SDS011;2267;48.816;9.230;2023-08-06T15:03:28;1.77;;;1.00;;
4508;SDS011;2267;48.816;9.230;2023-08-06T15:05:57;1.80;;;1.23;;
4508;SDS011;2267;48.816;9.230;2023-08-06T15:08:24;2.27;;;1.10;;
4508;SDS011;2267;48.816;9.230;2023-08-06T15:10:51;1.70;;;0.90;;
4508;SDS011;2267;48.816;9.230;2023-08-06T15:13:19;2.43;;;1.10;;
4508;SDS011;2267;48.816;9.230;2023-08-06T15:15:46;1.50;;;0.80;;
4508;SDS011;2267;48.816;9.230;2023-08-06T15:18:14;3.70;;;1.03;;
4508;SDS011;2267;48.816;9.230;2023-08-06T15:20:41;1.90;;;1.00;;
4508;SDS011;2267;48.816;9.230;2023-08-06T15:23:08;2.10;;;1.00;;
4508;SDS011;2267;48.816;9.230;2023-08-06T15:25:35;2.30;;;0.97;;